Time;durP1;ratioP1;P1;durP2;ratioP2;P2;SDS_P1;SDS_P2;PMS_P1;PMS_P2;Temp;Humidity;BMP_temperature;BMP_pressure;BME280_temperature;BME280_humidity;BME280_pressure;Samples;Min_cycle;Max_cycle;Signal;HPM_P1;HPM_P2
2023/06/03 00:00:23;;;;;;;8.10;1.83;;;;;;;;;;5094481;27;20051;-74
2023/06/03 00:02:52;;;;;;;5.70;1.70;;;;;;;;;;5096013;27;20052;-74
2023/06/03 00:05:20;;;;;;;6.28;2.05;;;;;;;;;;5102201;27;20044;-74
2023/06/03 00:07:46;;;;;;;6.45;2.00;;;;;;;;;;5102406;27;20071;-74
2023/06/03 00:10:13;;;;;;;5.13;2.05;;;;;;;;;;5101723;27;20043;-75
2023/06/03 00:12:39;;;;;;;4.60;1.60;;;;;;;;;;5101291;27;20415;-74
2023/06/03 00:15:06;;;;;;;7.97;1.85;;;;;;;;;;5114818;27;20051;-74
2023/06/03 00:17:33;;;;;;;4.60;1.67;;;;;;;;;;5098966;27;20096;-74
2023/06/03 00:20:06;;;;;;;4.72;1.45;;;;;;;;;;5092964;27;20052;-74
2023/06/03 00:22:35;;;;;;;4.80;1.55;;;;;;;;;;5095426;27;20043;-74
2023/06/03 00:25:01;;;;;;;6.72;1.90;;;;;;;;;;5095827;27;20128;-75
2023/06/03 00:27:27;;;;;;;4.90;1.33;;;;;;;;;;5089612;27;20058;-74
2023/06/03 00:29:53;;;;;;;5.45;1.60;;;;;;;;;;5093553;27;20044;-75
2023/06/03 00:32:20;;;;;;;6.32;1.85;;;;;;;;;;5107332;27;20851;-74
2023/06/03 00:34:47;;;;;;;7.97;1.90;;;;;;;;;;5096525;27;20611;-75
2023/06/03 00:37:13;;;;;;;6.05;1.98;;;;;;;;;;5094785;27;20047;-74
2023/06/03 00:39:39;;;;;;;5.07;2.05;;;;;;;;;;5096227;27;20047;-74
2023/06/03 00:42:05;;;;;;;5.07;1.55;;;;;;;;;;5096950;27;20062;-75
2023/06/03 00:44:31;;;;;;;4.53;1.77;;;;;;;;;;5111509;27;20391;-74
2023/06/03 00:46:58;;;;;;;5.65;2.00;;;;;;;;;;5130378;27;20127;-74
2023/06/03 00:49:24;;;;;;;3.80;1.60;;;;;;;;;;5099061;27;20549;-75
2023/06/03 00:51:50;;;;;;;5.63;1.42;;;;;;;;;;5094211;27;20495;-75
2023/06/03 00:54:16;;;;;;;4.40;1.65;;;;;;;;;;5098143;27;20065;-74
2023/06/03 00:56:44;;;;;;;4.22;1.52;;;;;;;;;;5109768;27;20071;-74
2023/06/03 00:59:14;;;;;;;5.40;2.28;;;;;;;;;;5092557;27;20170;-75
2023/06/03 01:01:42;;;;;;;8.02;2.13;;;;;;;;;;5093931;27;20177;-74
2023/06/03 01:04:08;;;;;;;4.82;1.70;;;;;;;;;;5079049;28;20052;-74
2023/06/03 01:06:45;;;;;;;4.70;1.65;;;;;;;;;;5094643;27;20052;-75
2023/06/03 01:09:30;;;;;;;8.50;2.35;;;;;;;;;;5091781;27;20148;-75
2023/06/03 01:12:07;;;;;;;4.15;1.75;;;;;;;;;;5096139;27;20529;-75
2023/06/03 01:14:35;;;;;;;8.38;1.75;;;;;;;;;;5091810;27;20055;-74
2023/06/03 01:17:09;;;;;;;3.88;1.58;;;;;;;;;;5094720;28;20058;-74
2023/06/03 01:19:48;;;;;;;5.82;1.70;;;;;;;;;;5096809;27;20945;-74
2023/06/03 01:22:16;;;;;;;4.00;1.65;;;;;;;;;;5082012;28;20085;-75
2023/06/03 01:24:43;;;;;;;3.83;1.67;;;;;;;;;;5100102;27;20050;-74
2023/06/03 01:27:10;;;;;;;5.60;2.17;;;;;;;;;;5094268;27;20044;-74
2023/06/03 01:29:37;;;;;;;4.90;1.80;;;;;;;;;;5092709;28;20063;-74
2023/06/03 01:32:03;;;;;;;7.22;1.70;;;;;;;;;;5125158;27;20101;-74
2023/06/03 01:34:30;;;;;;;4.97;2.00;;;;;;;;;;5093471;27;20052;-74
2023/06/03 01:40:01;;;;;;;5.10;1.70;;;;;;;;;;5097370;28;20067;-74
2023/06/03 01:42:27;;;;;;;5.65;1.58;;;;;;;;;;5098323;28;20042;-74
2023/06/03 01:44:53;;;;;;;4.28;1.73;;;;;;;;;;5099240;28;20048;-75
2023/06/03 01:47:20;;;;;;;5.10;1.95;;;;;;;;;;5130094;27;20047;-75
2023/06/03 01:49:46;;;;;;;5.65;1.77;;;;;;;;;;5098471;27;20050;-75
2023/06/03 01:52:12;;;;;;;5.95;1.80;;;;;;;;;;5096586;27;20052;-75
2023/06/03 01:54:38;;;;;;;7.53;2.00;;;;;;;;;;5106980;27;20101;-74
2023/06/03 01:57:05;;;;;;;5.18;2.00;;;;;;;;;;5097347;27;20134;-75
2023/06/03 01:59:31;;;;;;;4.65;2.03;;;;;;;;;;5097199;27;20047;-75
2023/06/03 02:01:58;;;;;;;8.90;2.40;;;;;;;;;;5126906;27;20040;-79
2023/06/03 02:04:26;;;;;;;4.63;1.80;;;;;;;;;;5101565;27;20062;-75
2023/06/03 02:06:53;;;;;;;2.33;1.23;;;;;;;;;;5096846;27;20055;-74
2023/06/03 02:09:27;;;;;;;11.65;1.80;;;;;;;;;;5095882;28;20039;-75
2023/06/03 02:11:53;;;;;;;4.85;1.48;;;;;;;;;;5096585;27;20083;-75
2023/06/03 02:14:20;;;;;;;5.00;1.50;;;;;;;;;;5098328;27;20466;-75
2023/06/03 02:16:48;;;;;;;3.50;1.40;;;;;;;;;;5095463;27;20431;-75
2023/06/03 02:19:15;;;;;;;3.80;1.67;;;;;;;;;;5095065;27;20051;-75
2023/06/03 02:21:42;;;;;;;5.78;2.08;;;;;;;;;;5093902;27;20108;-74
2023/06/03 02:24:09;;;;;;;3.95;1.25;;;;;;;;;;5090286;27;20048;-75
2023/06/03 02:26:35;;;;;;;5.32;1.45;;;;;;;;;;5097696;28;20035;-75
2023/06/03 02:29:02;;;;;;;2.47;1.05;;;;;;;;;;5094204;27;20071;-75
2023/06/03 02:31:28;;;;;;;4.38;1.48;;;;;;;;;;5096756;27;21639;-75
2023/06/03 02:33:54;;;;;;;2.85;1.20;;;;;;;;;;5096254;28;20048;-75
2023/06/03 02:36:21;;;;;;;3.70;1.27;;;;;;;;;;5110148;27;20101;-75
2023/06/03 02:38:47;;;;;;;4.55;1.73;;;;;;;;;;5097907;27;20049;-75
2023/06/03 02:41:14;;;;;;;3.03;1.17;;;;;;;;;;5099812;28;20337;-75
2023/06/03 02:43:42;;;;;;;5.28;1.58;;;;;;;;;;5093825;28;20051;-75
2023/06/03 02:46:08;;;;;;;3.92;1.23;;;;;;;;;;5097601;28;20050;-74
2023/06/03 02:48:35;;;;;;;2.90;1.27;;;;;;;;;;5093263;28;20158;-74
2023/06/03 02:51:01;;;;;;;3.45;1.15;;;;;;;;;;5091561;28;20044;-75
2023/06/03 02:53:27;;;;;;;3.28;1.23;;;;;;;;;;5091935;28;20047;-74
2023/06/03 02:55:53;;;;;;;3.50;1.83;;;;;;;;;;5094425;28;21730;-75
2023/06/03 02:58:19;;;;;;;4.65;1.27;;;;;;;;;;5093634;28;20051;-75
2023/06/03 03:00:45;;;;;;;4.63;1.40;;;;;;;;;;5107531;27;20167;-74
2023/06/03 03:03:12;;;;;;;3.78;1.42;;;;;;;;;;5126942;27;20410;-75
2023/06/03 03:05:40;;;;;;;3.15;1.13;;;;;;;;;;5097437;27;20040;-74
2023/06/03 03:08:06;;;;;;;3.63;1.42;;;;;;;;;;5098608;27;20395;-75
2023/06/03 03:10:32;;;;;;;5.78;1.77;;;;;;;;;;5110535;27;20044;-75
2023/06/03 03:12:58;;;;;;;4.10;1.50;;;;;;;;;;5112349;27;20092;-75
2023/06/03 03:15:25;;;;;;;4.18;1.52;;;;;;;;;;5096980;27;20490;-74
2023/06/03 03:17:51;;;;;;;2.58;1.02;;;;;;;;;;5098001;27;20040;-74
2023/06/03 03:20:17;;;;;;;5.68;2.40;;;;;;;;;;5130691;27;20054;-75
2023/06/03 03:22:44;;;;;;;2.58;1.00;;;;;;;;;;5097075;27;20083;-74
2023/06/03 03:25:11;;;;;;;6.43;1.23;;;;;;;;;;5113124;27;20089;-75
2023/06/03 03:27:37;;;;;;;5.93;1.20;;;;;;;;;;5094102;27;20135;-74
2023/06/03 03:30:04;;;;;;;3.22;1.13;;;;;;;;;;5100969;27;20490;-75
2023/06/03 03:32:31;;;;;;;3.22;1.20;;;;;;;;;;5096202;27;20426;-73
2023/06/03 03:35:12;;;;;;;4.38;1.20;;;;;;;;;;5096124;27;20414;-74
2023/06/03 03:37:38;;;;;;;5.28;1.30;;;;;;;;;;5129472;27;20066;-75
2023/06/03 03:40:07;;;;;;;2.45;1.25;;;;;;;;;;5096427;27;20051;-75
2023/06/03 03:42:33;;;;;;;4.35;1.20;;;;;;;;;;5111084;27;20071;-74
2023/06/03 03:45:00;;;;;;;3.15;1.10;;;;;;;;;;5099886;27;20046;-74
2023/06/03 03:47:27;;;;;;;5.38;1.30;;;;;;;;;;5099799;27;20052;-74
2023/06/03 03:49:53;;;;;;;3.92;1.33;;;;;;;;;;5100315;27;20364;-75
2023/06/03 03:52:26;;;;;;;3.47;1.45;;;;;;;;;;5099228;27;20032;-74
2023/06/03 03:54:52;;;;;;;4.03;1.10;;;;;;;;;;5101423;27;20044;-75
2023/06/03 03:57:19;;;;;;;2.63;1.10;;;;;;;;;;5105642;27;20162;-75
2023/06/03 03:59:46;;;;;;;4.20;1.65;;;;;;;;;;5106737;27;20135;-75
2023/06/03 04:02:12;;;;;;;2.72;1.10;;;;;;;;;;5105399;27;20216;-75
2023/06/03 04:04:41;;;;;;;4.22;1.15;;;;;;;;;;5105573;27;20143;-72
2023/06/03 04:07:08;;;;;;;5.57;1.60;;;;;;;;;;5105070;27;20043;-72
2023/06/03 04:09:35;;;;;;;3.70;1.50;;;;;;;;;;5107716;27;20513;-72
2023/06/03 04:12:02;;;;;;;11.15;1.50;;;;;;;;;;5106347;27;20127;-72
2023/06/03 04:14:44;;;;;;;4.18;1.73;;;;;;;;;;5107292;27;20087;-72
2023/06/03 04:17:13;;;;;;;4.70;1.25;;;;;;;;;;5107311;27;20043;-72
2023/06/03 04:19:41;;;;;;;4.25;1.40;;;;;;;;;;5137450;27;20048;-74
2023/06/03 04:22:08;;;;;;;4.75;1.35;;;;;;;;;;5102708;27;20074;-72
2023/06/03 04:24:35;;;;;;;3.05;1.00;;;;;;;;;;5109386;27;20115;-72
2023/06/03 04:27:02;;;;;;;3.45;1.25;;;;;;;;;;5110470;27;20440;-72
2023/06/03 04:29:29;;;;;;;7.38;1.52;;;;;;;;;;5107690;27;20043;-72
2023/06/03 04:31:55;;;;;;;4.28;1.23;;;;;;;;;;5106229;27;20134;-72
2023/06/03 04:34:21;;;;;;;6.20;1.25;;;;;;;;;;5106191;27;20059;-72
2023/06/03 04:36:48;;;;;;;6.13;2.13;;;;;;;;;;5088214;27;20486;-72
2023/06/03 04:39:14;;;;;;;6.10;1.30;;;;;;;;;;5105670;27;20047;-72
2023/06/03 04:41:40;;;;;;;5.28;1.40;;;;;;;;;;5103441;27;20051;-72
2023/06/03 04:44:08;;;;;;;5.00;1.23;;;;;;;;;;5104371;27;20079;-72
2023/06/03 04:46:35;;;;;;;6.72;1.38;;;;;;;;;;5107937;27;20615;-72
2023/06/03 04:49:01;;;;;;;6.05;1.33;;;;;;;;;;5107884;27;20557;-73
2023/06/03 04:51:28;;;;;;;4.50;1.40;;;;;;;;;;5138555;27;20039;-72
2023/06/03 04:53:56;;;;;;;4.28;1.23;;;;;;;;;;5138083;27;20039;-72
2023/06/03 04:56:24;;;;;;;3.60;1.38;;;;;;;;;;5101570;27;20044;-70
2023/06/03 04:58:54;;;;;;;3.10;1.40;;;;;;;;;;5104514;27;20134;-71
2023/06/03 05:01:22;;;;;;;3.63;1.33;;;;;;;;;;5087814;27;20048;-71
2023/06/03 05:03:49;;;;;;;4.45;1.42;;;;;;;;;;5102802;27;20108;-71
2023/06/03 05:06:15;;;;;;;6.43;2.00;;;;;;;;;;5105697;27;20036;-71
2023/06/03 05:08:41;;;;;;;6.85;1.70;;;;;;;;;;5106041;27;20035;-71
2023/06/03 05:11:07;;;;;;;5.93;1.38;;;;;;;;;;5104350;27;20049;-72
2023/06/03 05:13:34;;;;;;;3.40;1.30;;;;;;;;;;5102920;27;20044;-71
2023/06/03 05:16:00;;;;;;;3.22;1.20;;;;;;;;;;5102657;27;20402;-71
2023/06/03 05:18:26;;;;;;;3.17;1.45;;;;;;;;;;5104777;27;20047;-71
2023/06/03 05:20:52;;;;;;;5.65;1.40;;;;;;;;;;5101513;27;20036;-71
2023/06/03 05:23:19;;;;;;;5.13;1.50;;;;;;;;;;5102244;27;20071;-71
2023/06/03 05:25:45;;;;;;;5.10;1.65;;;;;;;;;;5135397;27;20084;-71
2023/06/03 05:28:11;;;;;;;4.55;1.52;;;;;;;;;;5100531;27;20048;-72
2023/06/03 05:30:37;;;;;;;3.80;1.63;;;;;;;;;;5102220;27;20055;-71
2023/06/03 05:33:04;;;;;;;5.13;1.40;;;;;;;;;;5105767;27;20135;-73
2023/06/03 05:35:30;;;;;;;4.75;1.45;;;;;;;;;;5107248;27;20137;-71
2023/06/03 05:37:56;;;;;;;4.25;1.50;;;;;;;;;;5106121;27;20494;-71
2023/06/03 05:40:22;;;;;;;6.47;1.40;;;;;;;;;;5103941;27;20202;-71
2023/06/03 05:42:48;;;;;;;3.58;1.58;;;;;;;;;;5101278;27;20044;-72
2023/06/03 05:45:16;;;;;;;3.28;1.20;;;;;;;;;;5101956;27;20051;-72
2023/06/03 05:47:42;;;;;;;6.97;1.45;;;;;;;;;;5107286;27;20054;-72
2023/06/03 05:50:09;;;;;;;3.65;1.30;;;;;;;;;;5109283;27;20054;-72
2023/06/03 05:52:35;;;;;;;3.83;1.50;;;;;;;;;;5108204;27;20427;-71
2023/06/03 05:55:01;;;;;;;4.57;1.38;;;;;;;;;;5105498;27;20038;-72
2023/06/03 05:57:28;;;;;;;5.07;1.20;;;;;;;;;;5106462;27;20044;-71
2023/06/03 05:59:54;;;;;;;5.13;1.30;;;;;;;;;;5105764;27;20210;-72
2023/06/03 06:02:20;;;;;;;4.50;1.40;;;;;;;;;;5096690;28;20044;-72
2023/06/03 06:04:47;;;;;;;4.40;1.33;;;;;;;;;;5110420;27;20087;-72
2023/06/03 06:07:13;;;;;;;2.78;1.25;;;;;;;;;;5110730;27;20121;-73
2023/06/03 06:09:39;;;;;;;3.72;1.60;;;;;;;;;;5104584;27;20047;-76
2023/06/03 06:12:05;;;;;;;5.63;1.30;;;;;;;;;;5105414;27;20551;-71
2023/06/03 06:14:31;;;;;;;3.78;1.30;;;;;;;;;;5104287;27;20031;-72
2023/06/03 06:16:58;;;;;;;4.78;1.52;;;;;;;;;;5140725;27;20062;-72
2023/06/03 06:19:24;;;;;;;5.20;1.50;;;;;;;;;;5103030;27;20042;-72
2023/06/03 06:21:50;;;;;;;3.58;1.30;;;;;;;;;;5095922;27;20054;-72
2023/06/03 06:24:16;;;;;;;2.95;1.23;;;;;;;;;;5106127;27;20416;-72
2023/06/03 06:26:43;;;;;;;4.97;1.45;;;;;;;;;;5102551;27;20565;-72
2023/06/03 06:29:09;;;;;;;4.88;1.17;;;;;;;;;;5103673;28;20057;-72
2023/06/03 06:31:35;;;;;;;3.00;1.38;;;;;;;;;;5102533;27;20053;-72
2023/06/03 06:34:02;;;;;;;2.63;1.20;;;;;;;;;;5105307;27;20090;-72
2023/06/03 06:36:30;;;;;;;5.25;1.38;;;;;;;;;;5103263;27;20032;-72
2023/06/03 06:38:57;;;;;;;7.28;1.65;;;;;;;;;;5103301;27;20386;-72
2023/06/03 06:41:26;;;;;;;4.80;1.27;;;;;;;;;;5104215;28;20116;-74
2023/06/03 06:43:53;;;;;;;5.85;2.03;;;;;;;;;;5103548;28;20043;-72
2023/06/03 06:46:19;;;;;;;6.38;1.48;;;;;;;;;;5087291;28;20683;-72
2023/06/03 06:48:45;;;;;;;5.55;1.38;;;;;;;;;;5105407;28;20035;-73
2023/06/03 06:51:12;;;;;;;5.60;1.88;;;;;;;;;;5106364;28;20050;-72
2023/06/03 06:53:38;;;;;;;3.72;1.30;;;;;;;;;;5105744;28;20055;-71
2023/06/03 06:56:05;;;;;;;2.58;1.13;;;;;;;;;;5111205;28;20043;-72
2023/06/03 06:58:35;;;;;;;5.47;1.25;;;;;;;;;;5118324;27;20048;-72
2023/06/03 07:01:05;;;;;;;6.80;1.02;;;;;;;;;;5102931;28;20120;-72
2023/06/03 07:03:31;;;;;;;8.13;1.65;;;;;;;;;;5101289;28;21412;-72
2023/06/03 07:05:58;;;;;;;3.63;1.23;;;;;;;;;;5097774;27;20051;-72
2023/06/03 07:08:24;;;;;;;3.80;1.30;;;;;;;;;;5102207;28;20478;-72
2023/06/03 07:10:51;;;;;;;3.53;1.48;;;;;;;;;;5101610;28;20088;-72
2023/06/03 07:13:17;;;;;;;4.15;1.33;;;;;;;;;;5103366;28;20101;-72
2023/06/03 07:15:44;;;;;;;5.95;1.42;;;;;;;;;;5101200;28;20042;-72
2023/06/03 07:18:11;;;;;;;3.47;1.10;;;;;;;;;;5132809;27;20133;-72
2023/06/03 07:20:45;;;;;;;3.75;0.90;;;;;;;;;;5101230;28;20456;-72
2023/06/03 07:23:12;;;;;;;3.42;0.90;;;;;;;;;;5101165;28;20497;-72
2023/06/03 07:25:41;;;;;;;5.50;1.30;;;;;;;;;;5088399;28;20092;-72
2023/06/03 07:28:10;;;;;;;3.00;1.05;;;;;;;;;;5100925;28;20459;-72
2023/06/03 07:30:36;;;;;;;3.33;1.50;;;;;;;;;;5086387;28;20173;-72
2023/06/03 07:33:04;;;;;;;3.05;1.50;;;;;;;;;;5102388;28;20044;-72
2023/06/03 07:35:30;;;;;;;4.35;1.20;;;;;;;;;;5103546;28;20062;-72
2023/06/03 07:37:57;;;;;;;5.10;1.25;;;;;;;;;;5104986;28;20052;-72
2023/06/03 07:40:27;;;;;;;2.28;1.23;;;;;;;;;;5106411;28;20054;-72
2023/06/03 07:42:54;;;;;;;3.67;1.00;;;;;;;;;;5106441;28;20071;-72
2023/06/03 07:45:20;;;;;;;3.45;0.98;;;;;;;;;;5100129;28;20055;-72
2023/06/03 07:47:46;;;;;;;2.65;1.08;;;;;;;;;;5101197;28;20048;-72
2023/06/03 07:50:20;;;;;;;2.08;1.20;;;;;;;;;;5103561;27;20058;-72
2023/06/03 07:52:46;;;;;;;5.82;1.05;;;;;;;;;;5106210;27;20103;-72
2023/06/03 07:55:13;;;;;;;2.55;1.13;;;;;;;;;;5113373;27;20039;-73
2023/06/03 07:57:43;;;;;;;3.63;0.93;;;;;;;;;;5108959;27;20068;-73
2023/06/03 08:00:09;;;;;;;3.22;0.90;;;;;;;;;;5111501;27;20049;-70
2023/06/03 08:02:37;;;;;;;2.28;1.00;;;;;;;;;;5116251;27;20044;-70
2023/06/03 08:05:04;;;;;;;3.67;1.33;;;;;;;;;;5113857;27;20051;-70
2023/06/03 08:07:30;;;;;;;2.58;0.90;;;;;;;;;;5109216;27;20585;-70
2023/06/03 08:09:57;;;;;;;2.72;1.10;;;;;;;;;;5108579;27;20054;-70
2023/06/03 08:12:35;;;;;;;2.28;0.90;;;;;;;;;;5111085;27;20046;-70
2023/06/03 08:15:02;;;;;;;2.72;1.00;;;;;;;;;;5106119;27;21880;-70
2023/06/03 08:17:38;;;;;;;4.57;1.23;;;;;;;;;;5111151;27;20398;-70
2023/06/03 08:20:08;;;;;;;6.70;1.60;;;;;;;;;;5113496;27;20043;-70
2023/06/03 08:22:40;;;;;;;2.55;1.00;;;;;;;;;;5114583;27;20071;-70
2023/06/03 08:25:07;;;;;;;3.55;0.80;;;;;;;;;;5112628;27;20039;-70
2023/06/03 08:27:33;;;;;;;4.70;1.02;;;;;;;;;;5112020;27;20043;-70
2023/06/03 08:30:03;;;;;;;2.45;0.95;;;;;;;;;;5111723;27;20071;-70
2023/06/03 08:32:29;;;;;;;4.72;1.70;;;;;;;;;;5092972;27;20035;-70
2023/06/03 08:34:56;;;;;;;4.78;1.50;;;;;;;;;;5096661;27;20547;-70
2023/06/03 08:37:22;;;;;;;3.53;1.00;;;;;;;;;;5100495;27;20032;-70
2023/06/03 08:39:48;;;;;;;5.32;1.20;;;;;;;;;;5104136;27;20047;-70
2023/06/03 08:42:19;;;;;;;4.70;0.98;;;;;;;;;;5112195;27;20141;-71
2023/06/03 08:44:52;;;;;;;4.20;1.27;;;;;;;;;;5089516;28;20066;-70
2023/06/03 08:47:22;;;;;;;1.80;0.77;;;;;;;;;;5097427;27;20048;-70
2023/06/03 08:50:00;;;;;;;3.63;0.80;;;;;;;;;;5115861;27;20374;-70
2023/06/03 08:52:27;;;;;;;5.07;1.00;;;;;;;;;;5110300;27;21802;-78
2023/06/03 08:54:56;;;;;;;2.88;0.95;;;;;;;;;;5095314;27;20364;-70
2023/06/03 08:57:22;;;;;;;2.95;1.10;;;;;;;;;;5104358;27;20657;-70
2023/06/03 08:59:52;;;;;;;1.90;0.90;;;;;;;;;;5105811;27;20046;-70
2023/06/03 09:02:18;;;;;;;3.22;0.95;;;;;;;;;;5127432;27;20513;-70
2023/06/03 09:04:47;;;;;;;3.45;0.90;;;;;;;;;;5109627;27;20171;-70
2023/06/03 09:07:13;;;;;;;3.10;0.93;;;;;;;;;;5127266;27;20047;-70
2023/06/03 09:09:40;;;;;;;3.00;1.10;;;;;;;;;;5117520;27;20501;-70
2023/06/03 09:12:07;;;;;;;3.47;0.80;;;;;;;;;;5128908;27;20123;-70
2023/06/03 09:14:33;;;;;;;4.50;1.08;;;;;;;;;;5122226;27;20090;-70
2023/06/03 09:17:00;;;;;;;2.63;1.02;;;;;;;;;;5109348;27;20042;-70
2023/06/03 09:19:27;;;;;;;7.65;0.98;;;;;;;;;;5109941;27;20079;-70
2023/06/03 09:21:56;;;;;;;2.72;0.77;;;;;;;;;;5108937;27;20039;-70
2023/06/03 09:24:22;;;;;;;1.98;0.75;;;;;;;;;;5139748;27;20094;-70
2023/06/03 09:26:49;;;;;;;2.08;0.80;;;;;;;;;;5129806;27;20107;-70
2023/06/03 09:29:17;;;;;;;1.98;0.70;;;;;;;;;;5127894;27;20051;-70
2023/06/03 09:31:43;;;;;;;2.15;0.80;;;;;;;;;;5109904;27;20102;-70
2023/06/03 09:34:09;;;;;;;2.55;0.90;;;;;;;;;;5109355;27;20039;-70
2023/06/03 09:36:46;;;;;;;4.35;0.70;;;;;;;;;;5107573;27;20118;-70
2023/06/03 09:39:16;;;;;;;3.40;0.98;;;;;;;;;;5109910;27;20051;-70
2023/06/03 09:41:43;;;;;;;4.97;0.93;;;;;;;;;;5124604;27;20512;-70
2023/06/03 09:44:10;;;;;;;2.10;0.85;;;;;;;;;;5108585;27;20047;-71
2023/06/03 09:46:36;;;;;;;4.57;1.00;;;;;;;;;;5103628;27;20392;-70
2023/06/03 09:49:21;;;;;;;2.25;0.80;;;;;;;;;;5114708;27;20048;-70
2023/06/03 09:51:48;;;;;;;3.55;0.95;;;;;;;;;;5127521;27;20035;-70
2023/06/03 09:54:15;;;;;;;2.53;0.77;;;;;;;;;;5131138;27;20553;-70
2023/06/03 09:56:42;;;;;;;2.20;0.82;;;;;;;;;;5110790;27;20043;-71
2023/06/03 09:59:14;;;;;;;3.85;1.15;;;;;;;;;;5110246;27;20043;-71
2023/06/03 10:01:42;;;;;;;3.27;1.23;;;;;;;;;;5108586;27;20039;-71
2023/06/03 10:04:08;;;;;;;2.92;0.82;;;;;;;;;;5131074;27;20139;-71
2023/06/03 10:06:38;;;;;;;6.15;1.10;;;;;;;;;;5112086;27;20078;-71
2023/06/03 10:09:25;;;;;;;4.15;0.82;;;;;;;;;;5125840;27;20455;-75
2023/06/03 10:11:52;;;;;;;2.80;0.80;;;;;;;;;;5110193;27;20035;-70
2023/06/03 10:14:21;;;;;;;2.40;0.80;;;;;;;;;;5102770;27;20039;-72
2023/06/03 10:17:07;;;;;;;1.75;0.73;;;;;;;;;;5105042;27;20075;-72
2023/06/03 10:19:34;;;;;;;4.10;1.00;;;;;;;;;;5105296;27;20050;-72
2023/06/03 10:22:00;;;;;;;3.33;0.90;;;;;;;;;;5107744;27;20043;-72
2023/06/03 10:24:28;;;;;;;1.98;0.90;;;;;;;;;;5091459;27;20134;-73
2023/06/03 10:26:55;;;;;;;3.22;1.00;;;;;;;;;;5107947;27;20043;-72
2023/06/03 10:29:21;;;;;;;1.90;0.80;;;;;;;;;;5109864;27;20528;-72
2023/06/03 10:31:54;;;;;;;4.55;0.77;;;;;;;;;;5120208;27;20047;-72
2023/06/03 10:34:21;;;;;;;4.82;0.80;;;;;;;;;;5138893;27;20398;-72
2023/06/03 10:36:51;;;;;;;4.38;0.90;;;;;;;;;;5127661;27;20122;-72
2023/06/03 10:39:18;;;;;;;2.08;0.80;;;;;;;;;;5124223;27;20043;-72
2023/06/03 10:41:44;;;;;;;2.97;0.90;;;;;;;;;;5090833;27;20137;-72
2023/06/03 10:44:11;;;;;;;1.77;0.60;;;;;;;;;;5127501;27;20393;-72
2023/06/03 10:46:41;;;;;;;2.58;0.88;;;;;;;;;;5125289;27;20590;-70
2023/06/03 10:49:08;;;;;;;3.58;0.93;;;;;;;;;;5109581;27;21442;-71
2023/06/03 10:51:45;;;;;;;3.33;1.10;;;;;;;;;;5112108;27;20066;-69
2023/06/03 10:54:20;;;;;;;3.00;0.70;;;;;;;;;;5110194;27;20039;-67
2023/06/03 10:56:49;;;;;;;1.52;0.70;;;;;;;;;;5110537;27;20100;-70
2023/06/03 10:59:19;;;;;;;2.47;0.90;;;;;;;;;;5093796;27;20064;-70
2023/06/03 11:02:01;;;;;;;3.20;0.80;;;;;;;;;;5110142;27;20547;-69
2023/06/03 11:04:30;;;;;;;4.70;0.90;;;;;;;;;;5107520;27;20051;-70
2023/06/03 11:06:57;;;;;;;4.15;1.40;;;;;;;;;;5126397;27;20050;-69
2023/06/03 11:09:30;;;;;;;3.80;0.90;;;;;;;;;;5128554;27;20043;-70
2023/06/03 11:12:03;;;;;;;3.60;0.93;;;;;;;;;;5138796;27;20505;-69
2023/06/03 11:14:30;;;;;;;1.83;0.75;;;;;;;;;;5109236;27;20622;-69
2023/06/03 11:16:57;;;;;;;2.72;0.80;;;;;;;;;;5116165;27;20061;-73
2023/06/03 11:19:31;;;;;;;2.28;0.90;;;;;;;;;;5109840;27;20051;-73
2023/06/03 11:21:59;;;;;;;3.53;1.00;;;;;;;;;;5144088;27;20035;-73
2023/06/03 11:24:41;;;;;;;2.67;0.80;;;;;;;;;;5114020;27;20038;-73
2023/06/03 11:27:16;;;;;;;2.30;0.80;;;;;;;;;;5132921;27;20039;-73
2023/06/03 11:29:47;;;;;;;3.42;0.82;;;;;;;;;;5096194;27;20051;-73
2023/06/03 11:32:14;;;;;;;3.40;0.90;;;;;;;;;;5092099;28;20043;-73
2023/06/03 11:34:40;;;;;;;2.63;0.82;;;;;;;;;;5098862;27;20043;-73
2023/06/03 11:37:07;;;;;;;2.25;0.77;;;;;;;;;;5100656;27;20075;-73
2023/06/03 11:39:51;;;;;;;5.65;0.80;;;;;;;;;;5095238;27;20103;-74
2023/06/03 11:42:18;;;;;;;1.95;0.75;;;;;;;;;;5126439;27;20055;-74
2023/06/03 11:44:44;;;;;;;2.83;0.70;;;;;;;;;;5093585;27;20039;-73
2023/06/03 11:47:10;;;;;;;4.22;1.35;;;;;;;;;;5110435;27;20047;-73
2023/06/03 11:49:37;;;;;;;1.88;0.70;;;;;;;;;;5094679;27;20111;-73
2023/06/03 11:52:05;;;;;;;1.42;0.50;;;;;;;;;;5111341;27;20035;-74
2023/06/03 11:54:31;;;;;;;2.00;0.82;;;;;;;;;;5110270;27;20344;-73
2023/06/03 11:56:59;;;;;;;12.70;2.50;;;;;;;;;;5090386;28;20036;-74
2023/06/03 11:59:28;;;;;;;3.00;0.70;;;;;;;;;;5073833;27;20131;-74
2023/06/03 12:01:56;;;;;;;2.03;0.80;;;;;;;;;;5108325;27;20043;-73
2023/06/03 12:04:23;;;;;;;3.10;0.85;;;;;;;;;;5106605;27;20142;-74
2023/06/03 12:06:49;;;;;;;6.38;0.80;;;;;;;;;;5103178;27;20066;-74
2023/06/03 12:09:18;;;;;;;4.28;0.85;;;;;;;;;;5121965;27;20035;-73
2023/06/03 12:11:44;;;;;;;3.75;1.08;;;;;;;;;;5090119;27;20055;-74
2023/06/03 12:14:11;;;;;;;2.40;0.60;;;;;;;;;;5088006;28;20039;-74
2023/06/03 12:16:38;;;;;;;3.80;0.88;;;;;;;;;;5090721;27;20403;-77
2023/06/03 12:19:05;;;;;;;2.65;0.90;;;;;;;;;;5099043;27;20036;-77
2023/06/03 12:21:32;;;;;;;2.03;0.80;;;;;;;;;;5108039;27;20340;-76
2023/06/03 12:23:58;;;;;;;3.85;0.80;;;;;;;;;;5108830;27;20066;-76
2023/06/03 12:26:26;;;;;;;3.20;1.10;;;;;;;;;;5120716;27;20044;-76
2023/06/03 12:28:54;;;;;;;3.28;1.10;;;;;;;;;;5100836;27;20459;-76
2023/06/03 12:31:20;;;;;;;4.45;1.60;;;;;;;;;;5109373;27;20487;-76
2023/06/03 12:33:47;;;;;;;3.40;1.63;;;;;;;;;;5122735;27;20062;-76
2023/06/03 12:36:14;;;;;;;3.72;1.42;;;;;;;;;;5106911;27;20486;-75
2023/06/03 12:38:57;;;;;;;2.10;0.80;;;;;;;;;;5109156;27;21024;-76
2023/06/03 12:41:24;;;;;;;3.47;0.98;;;;;;;;;;5105101;27;20046;-73
2023/06/03 12:44:00;;;;;;;4.00;1.30;;;;;;;;;;5140176;27;20047;-76
2023/06/03 12:46:27;;;;;;;5.03;1.35;;;;;;;;;;5108929;27;20120;-76
2023/06/03 12:48:56;;;;;;;4.70;1.05;;;;;;;;;;5105664;27;20055;-76
2023/06/03 12:51:24;;;;;;;3.97;1.02;;;;;;;;;;5090091;27;20495;-76
2023/06/03 12:53:55;;;;;;;1.83;0.60;;;;;;;;;;5108515;27;20398;-76
2023/06/03 12:56:23;;;;;;;11.20;1.20;;;;;;;;;;5104706;27;20039;-76
2023/06/03 12:58:50;;;;;;;2.97;1.10;;;;;;;;;;5108883;27;20043;-76
2023/06/03 13:01:16;;;;;;;3.17;1.38;;;;;;;;;;5105924;27;20054;-76
2023/06/03 13:03:42;;;;;;;2.88;1.10;;;;;;;;;;5102439;27;20057;-75
2023/06/03 13:06:08;;;;;;;2.97;0.75;;;;;;;;;;5138431;27;20078;-76
2023/06/03 13:08:35;;;;;;;2.40;0.80;;;;;;;;;;5105678;27;20638;-76
2023/06/03 13:11:01;;;;;;;3.38;0.90;;;;;;;;;;5138905;27;20474;-76
2023/06/03 13:13:30;;;;;;;2.58;1.10;;;;;;;;;;5110913;27;20440;-76
2023/06/03 13:15:57;;;;;;;3.28;1.20;;;;;;;;;;5106376;27;20093;-75
2023/06/03 13:18:24;;;;;;;3.88;0.70;;;;;;;;;;5087374;28;20046;-76
2023/06/03 13:20:50;;;;;;;3.50;0.88;;;;;;;;;;5105492;27;20044;-68
2023/06/03 13:23:17;;;;;;;4.57;1.40;;;;;;;;;;5108061;27;20117;-75
2023/06/03 13:25:43;;;;;;;3.78;1.13;;;;;;;;;;5104676;27;20040;-74
2023/06/03 13:28:09;;;;;;;4.10;1.10;;;;;;;;;;5105443;27;20047;-74
2023/06/03 13:30:35;;;;;;;4.65;0.85;;;;;;;;;;5106230;27;20050;-75
2023/06/03 13:33:02;;;;;;;3.50;0.80;;;;;;;;;;5105009;27;20062;-75
2023/06/03 13:35:28;;;;;;;3.22;1.05;;;;;;;;;;5088268;28;20402;-75
2023/06/03 13:37:55;;;;;;;3.22;0.85;;;;;;;;;;5105181;27;20069;-75
2023/06/03 13:40:21;;;;;;;6.00;0.82;;;;;;;;;;5136092;27;20131;-75
2023/06/03 13:42:47;;;;;;;3.13;0.98;;;;;;;;;;5106824;27;20055;-75
2023/06/03 13:45:13;;;;;;;4.75;1.33;;;;;;;;;;5105226;27;20051;-75
2023/06/03 13:47:39;;;;;;;6.22;1.35;;;;;;;;;;5105364;27;20035;-75
2023/06/03 13:50:07;;;;;;;2.83;1.23;;;;;;;;;;5106983;27;20046;-75
2023/06/03 13:52:33;;;;;;;6.32;1.10;;;;;;;;;;5105877;27;20035;-75
2023/06/03 13:55:00;;;;;;;3.22;1.02;;;;;;;;;;5107379;27;20031;-75
2023/06/03 13:57:26;;;;;;;2.33;0.88;;;;;;;;;;5105751;27;20343;-75
2023/06/03 13:59:52;;;;;;;2.20;0.50;;;;;;;;;;5103798;27;20479;-75
2023/06/03 14:02:18;;;;;;;2.90;0.77;;;;;;;;;;5105272;27;20047;-76
2023/06/03 14:04:45;;;;;;;7.50;1.38;;;;;;;;;;5104891;27;20044;-75
2023/06/03 14:07:11;;;;;;;1.95;0.73;;;;;;;;;;5108585;27;20039;-76
2023/06/03 14:09:37;;;;;;;3.00;0.77;;;;;;;;;;5138332;27;21588;-75
2023/06/03 14:12:03;;;;;;;1.67;0.70;;;;;;;;;;5108176;27;20047;-76
2023/06/03 14:14:29;;;;;;;5.63;0.82;;;;;;;;;;5101793;27;20050;-76
2023/06/03 14:16:56;;;;;;;4.97;0.77;;;;;;;;;;5104161;27;20096;-76
2023/06/03 14:19:22;;;;;;;2.63;0.75;;;;;;;;;;5106894;27;20039;-76
2023/06/03 14:21:48;;;;;;;2.63;0.73;;;;;;;;;;5106759;27;20051;-76
2023/06/03 14:24:14;;;;;;;4.13;0.68;;;;;;;;;;5136795;27;20054;-76
2023/06/03 14:26:40;;;;;;;2.90;0.73;;;;;;;;;;5105824;28;20039;-76
2023/06/03 14:29:08;;;;;;;2.75;0.77;;;;;;;;;;5106354;27;20059;-76
2023/06/03 14:31:34;;;;;;;3.03;0.73;;;;;;;;;;5104174;28;20063;-76
2023/06/03 14:34:01;;;;;;;3.67;0.80;;;;;;;;;;5103110;27;20035;-76
2023/06/03 14:36:27;;;;;;;3.88;0.70;;;;;;;;;;5106038;27;20372;-75
2023/06/03 14:38:53;;;;;;;8.35;0.93;;;;;;;;;;5105474;28;20054;-76
2023/06/03 14:41:19;;;;;;;1.85;0.52;;;;;;;;;;5104560;28;20062;-76
2023/06/03 14:43:46;;;;;;;1.17;0.50;;;;;;;;;;5104428;28;20177;-76
2023/06/03 14:46:12;;;;;;;1.90;0.73;;;;;;;;;;5105398;28;20040;-76
2023/06/03 14:48:38;;;;;;;1.17;0.50;;;;;;;;;;5104398;28;20541;-76